sensor_id;sensor_type;location;lat;lon;timestamp;temperature;humidity
27619;DHT22;15039;50.830;4.730;2022-12-29T00:01:34;12.10;99.90
27619;DHT22;15039;50.830;4.730;2022-12-29T00:04:00;12.10;99.90
27619;DHT22;15039;50.830;4.730;2022-12-29T00:06:26;12.10;99.90
27619;DHT22;15039;50.830;4.730;2022-12-29T00:08:52;12.10;99.90
27619;DHT22;15039;50.830;4.730;2022-12-29T00:11:20;12.10;99.90
27619;DHT22;15039;50.830;4.730;2022-12-29T00:13:47;12.10;99.90
27619;DHT22;15039;50.830;4.730;2022-12-29T00:16:33;12.20;99.90
27619;DHT22;15039;50.830;4.730;2022-12-29T00:18:59;12.20;99.90
27619;DHT22;15039;50.830;4.730;2022-12-29T00:21:25;12.20;99.90
27619;DHT22;15039;50.830;4.730;2022-12-29T00:24:14;12.20;99.90
27619;DHT22;15039;50.830;4.730;2022-12-29T00:26:59;12.10;99.90
27619;DHT22;15039;50.830;4.730;2022-12-29T00:29:51;12.10;99.90
27619;DHT22;15039;50.830;4.730;2022-12-29T00:32:36;12.20;99.90
27619;DHT22;15039;50.830;4.730;2022-12-29T00:35:25;12.20;99.90
27619;DHT22;15039;50.830;4.730;2022-12-29T00:37:52;12.20;99.90
27619;DHT22;15039;50.830;4.730;2022-12-29T00:40:38;12.20;99.90
27619;DHT22;15039;50.830;4.730;2022-12-29T00:43:22;12.20;99.90
27619;DHT22;15039;50.830;4.730;2022-12-29T00:46:06;12.20;99.90
27619;DHT22;15039;50.830;4.730;2022-12-29T00:48:32;12.10;99.90
27619;DHT22;15039;50.830;4.730;2022-12-29T00:51:16;12.10;99.90
27619;DHT22;15039;50.830;4.730;2022-12-29T00:53:41;12.20;99.90
27619;DHT22;15039;50.830;4.730;2022-12-29T00:56:07;12.20;99.90
27619;DHT22;15039;50.830;4.730;2022-12-29T00:58:32;12.10;99.90
27619;DHT22;15039;50.830;4.730;2022-12-29T01:01:03;12.10;99.90
27619;DHT22;15039;50.830;4.730;2022-12-29T01:03:29;12.10;99.90
27619;DHT22;15039;50.830;4.730;2022-12-29T01:05:54;12.10;99.90
27619;DHT22;15039;50.830;4.730;2022-12-29T01:08:20;12.10;99.90
27619;DHT22;15039;50.830;4.730;2022-12-29T01:10:45;12.10;99.90
27619;DHT22;15039;50.830;4.730;2022-12-29T01:13:11;12.10;99.90
27619;DHT22;15039;50.830;4.730;2022-12-29T01:15:37;12.10;99.90
27619;DHT22;15039;50.830;4.730;2022-12-29T01:18:02;12.10;99.90
27619;DHT22;15039;50.830;4.730;2022-12-29T01:20:28;12.10;99.90
27619;DHT22;15039;50.830;4.730;2022-12-29T01:22:54;12.10;99.90
27619;DHT22;15039;50.830;4.730;2022-12-29T01:25:20;12.10;99.90
27619;DHT22;15039;50.830;4.730;2022-12-29T01:27:45;12.00;99.90
27619;DHT22;15039;50.830;4.730;2022-12-29T01:30:11;12.00;99.90
27619;DHT22;15039;50.830;4.730;2022-12-29T01:32:37;12.00;99.90
27619;DHT22;15039;50.830;4.730;2022-12-29T01:35:03;11.90;99.90
27619;DHT22;15039;50.830;4.730;2022-12-29T01:37:29;11.80;99.90
27619;DHT22;15039;50.830;4.730;2022-12-29T01:39:54;11.70;99.90
27619;DHT22;15039;50.830;4.730;2022-12-29T01:42:24;11.70;99.90
27619;DHT22;15039;50.830;4.730;2022-12-29T01:44:56;11.70;99.90
27619;DHT22;15039;50.830;4.730;2022-12-29T01:49:47;11.50;99.90
27619;DHT22;15039;50.830;4.730;2022-12-29T01:52:13;11.50;99.90
27619;DHT22;15039;50.830;4.730;2022-12-29T01:54:42;11.40;99.90
27619;DHT22;15039;50.830;4.730;2022-12-29T01:57:12;11.30;99.90
27619;DHT22;15039;50.830;4.730;2022-12-29T01:59:45;11.30;99.90
27619;DHT22;15039;50.830;4.730;2022-12-29T02:02:12;11.40;99.90
27619;DHT22;15039;50.830;4.730;2022-12-29T02:04:41;11.30;99.90
27619;DHT22;15039;50.830;4.730;2022-12-29T02:07:18;11.30;99.90
27619;DHT22;15039;50.830;4.730;2022-12-29T02:09:47;11.50;99.90
27619;DHT22;15039;50.830;4.730;2022-12-29T02:12:14;11.60;99.90
27619;DHT22;15039;50.830;4.730;2022-12-29T02:14:40;11.60;99.90
27619;DHT22;15039;50.830;4.730;2022-12-29T02:20:30;11.50;99.90
27619;DHT22;15039;50.830;4.730;2022-12-29T02:23:07;11.40;99.90
27619;DHT22;15039;50.830;4.730;2022-12-29T02:36:45;11.50;99.90
27619;DHT22;15039;50.830;4.730;2022-12-29T02:39:23;11.50;99.90
27619;DHT22;15039;50.830;4.730;2022-12-29T02:41:57;11.50;99.90
27619;DHT22;15039;50.830;4.730;2022-12-29T02:44:46;11.50;99.90
27619;DHT22;15039;50.830;4.730;2022-12-29T02:47:37;11.50;99.90
27619;DHT22;15039;50.830;4.730;2022-12-29T02:50:19;11.50;99.90
27619;DHT22;15039;50.830;4.730;2022-12-29T02:53:09;11.40;99.90
27619;DHT22;15039;50.830;4.730;2022-12-29T02:55:35;11.40;99.90
27619;DHT22;15039;50.830;4.730;2022-12-29T02:58:20;11.40;99.90
27619;DHT22;15039;50.830;4.730;2022-12-29T03:01:21;11.40;99.90
27619;DHT22;15039;50.830;4.730;2022-12-29T03:04:17;11.40;99.90
27619;DHT22;15039;50.830;4.730;2022-12-29T03:12:03;11.30;99.90
27619;DHT22;15039;50.830;4.730;2022-12-29T03:14:47;11.40;99.90
27619;DHT22;15039;50.830;4.730;2022-12-29T03:20:18;11.30;99.90
27619;DHT22;15039;50.830;4.730;2022-12-29T03:22:47;11.30;99.90
27619;DHT22;15039;50.830;4.730;2022-12-29T03:25:33;11.40;99.90
27619;DHT22;15039;50.830;4.730;2022-12-29T03:28:09;11.30;99.90
27619;DHT22;15039;50.830;4.730;2022-12-29T03:30:39;11.30;99.90
27619;DHT22;15039;50.830;4.730;2022-12-29T03:33:09;11.30;99.90
27619;DHT22;15039;50.830;4.730;2022-12-29T03:35:38;11.20;99.90
27619;DHT22;15039;50.830;4.730;2022-12-29T03:38:13;11.20;99.90
27619;DHT22;15039;50.830;4.730;2022-12-29T03:41:00;11.20;99.90
27619;DHT22;15039;50.830;4.730;2022-12-29T03:43:27;11.20;99.90
27619;DHT22;15039;50.830;4.730;2022-12-29T03:45:53;11.10;99.90
27619;DHT22;15039;50.830;4.730;2022-12-29T03:48:19;11.10;99.90
27619;DHT22;15039;50.830;4.730;2022-12-29T03:50:44;11.10;99.90
27619;DHT22;15039;50.830;4.730;2022-12-29T03:53:10;11.20;99.90
27619;DHT22;15039;50.830;4.730;2022-12-29T03:55:36;11.20;99.90
27619;DHT22;15039;50.830;4.730;2022-12-29T03:58:01;11.20;99.90
27619;DHT22;15039;50.830;4.730;2022-12-29T04:00:27;11.10;99.90
27619;DHT22;15039;50.830;4.730;2022-12-29T04:02:53;11.10;99.90
27619;DHT22;15039;50.830;4.730;2022-12-29T04:05:19;11.10;99.90
27619;DHT22;15039;50.830;4.730;2022-12-29T04:07:45;11.10;99.90
27619;DHT22;15039;50.830;4.730;2022-12-29T04:10:10;11.10;99.90
27619;DHT22;15039;50.830;4.730;2022-12-29T04:12:36;11.10;99.90
27619;DHT22;15039;50.830;4.730;2022-12-29T04:15:02;11.10;99.90
27619;DHT22;15039;50.830;4.730;2022-12-29T04:17:27;11.10;99.90
27619;DHT22;15039;50.830;4.730;2022-12-29T04:19:53;11.10;99.90
27619;DHT22;15039;50.830;4.730;2022-12-29T04:22:38;11.10;99.90
27619;DHT22;15039;50.830;4.730;2022-12-29T04:25:04;11.10;99.90
27619;DHT22;15039;50.830;4.730;2022-12-29T04:27:30;11.10;99.90
27619;DHT22;15039;50.830;4.730;2022-12-29T04:29:55;11.10;99.90
27619;DHT22;15039;50.830;4.730;2022-12-29T04:32:21;11.00;99.90
27619;DHT22;15039;50.830;4.730;2022-12-29T04:34:46;11.00;99.90
27619;DHT22;15039;50.830;4.730;2022-12-29T04:37:12;11.10;99.90
27619;DHT22;15039;50.830;4.730;2022-12-29T04:39:38;11.00;99.90
27619;DHT22;15039;50.830;4.730;2022-12-29T04:42:03;11.10;99.90
27619;DHT22;15039;50.830;4.730;2022-12-29T04:44:29;11.00;99.90
27619;DHT22;15039;50.830;4.730;2022-12-29T04:46:54;11.00;99.90
27619;DHT22;15039;50.830;4.730;2022-12-29T04:49:20;11.00;99.90
27619;DHT22;15039;50.830;4.730;2022-12-29T04:51:45;11.00;99.90
27619;DHT22;15039;50.830;4.730;2022-12-29T04:54:11;11.00;99.90
27619;DHT22;15039;50.830;4.730;2022-12-29T04:56:37;11.00;99.90
27619;DHT22;15039;50.830;4.730;2022-12-29T04:59:02;11.00;99.90
27619;DHT22;15039;50.830;4.730;2022-12-29T05:01:28;11.10;99.90
27619;DHT22;15039;50.830;4.730;2022-12-29T05:03:53;11.10;99.90
27619;DHT22;15039;50.830;4.730;2022-12-29T05:06:19;11.10;99.90
27619;DHT22;15039;50.830;4.730;2022-12-29T05:08:45;11.20;99.90
27619;DHT22;15039;50.830;4.730;2022-12-29T05:11:10;11.30;99.90
27619;DHT22;15039;50.830;4.730;2022-12-29T05:13:36;11.40;99.90
27619;DHT22;15039;50.830;4.730;2022-12-29T05:16:01;11.40;99.90
27619;DHT22;15039;50.830;4.730;2022-12-29T05:18:27;11.40;99.90
27619;DHT22;15039;50.830;4.730;2022-12-29T05:20:53;11.40;99.90
27619;DHT22;15039;50.830;4.730;2022-12-29T05:23:18;11.50;99.90
27619;DHT22;15039;50.830;4.730;2022-12-29T05:25:44;11.40;99.90
27619;DHT22;15039;50.830;4.730;2022-12-29T05:28:12;11.50;99.90
27619;DHT22;15039;50.830;4.730;2022-12-29T05:30:37;11.40;99.90
27619;DHT22;15039;50.830;4.730;2022-12-29T05:33:03;11.40;99.90
27619;DHT22;15039;50.830;4.730;2022-12-29T05:35:28;11.30;99.90
27619;DHT22;15039;50.830;4.730;2022-12-29T05:37:54;11.40;99.90
27619;DHT22;15039;50.830;4.730;2022-12-29T05:40:20;11.30;99.90
27619;DHT22;15039;50.830;4.730;2022-12-29T05:42:46;11.30;99.90
27619;DHT22;15039;50.830;4.730;2022-12-29T05:45:12;11.30;99.90
27619;DHT22;15039;50.830;4.730;2022-12-29T05:47:37;11.30;99.90
27619;DHT22;15039;50.830;4.730;2022-12-29T05:50:03;11.30;99.90
27619;DHT22;15039;50.830;4.730;2022-12-29T05:52:29;11.30;99.90
27619;DHT22;15039;50.830;4.730;2022-12-29T05:54:54;11.30;99.90
27619;DHT22;15039;50.830;4.730;2022-12-29T05:57:20;11.40;99.90
27619;DHT22;15039;50.830;4.730;2022-12-29T05:59:45;11.40;99.90
27619;DHT22;15039;50.830;4.730;2022-12-29T06:02:11;11.40;99.90
27619;DHT22;15039;50.830;4.730;2022-12-29T06:04:36;11.40;99.90
27619;DHT22;15039;50.830;4.730;2022-12-29T06:07:02;11.40;99.90
27619;DHT22;15039;50.830;4.730;2022-12-29T06:09:28;11.40;99.90
27619;DHT22;15039;50.830;4.730;2022-12-29T06:11:53;11.30;99.90
27619;DHT22;15039;50.830;4.730;2022-12-29T06:14:19;11.30;99.90
27619;DHT22;15039;50.830;4.730;2022-12-29T06:16:45;11.30;99.90
27619;DHT22;15039;50.830;4.730;2022-12-29T06:19:11;11.30;99.90
27619;DHT22;15039;50.830;4.730;2022-12-29T06:21:36;11.30;99.90
27619;DHT22;15039;50.830;4.730;2022-12-29T06:24:03;11.30;99.90
27619;DHT22;15039;50.830;4.730;2022-12-29T06:26:29;11.30;99.90
27619;DHT22;15039;50.830;4.730;2022-12-29T06:28:55;11.30;99.90
27619;DHT22;15039;50.830;4.730;2022-12-29T06:31:21;11.30;99.90
27619;DHT22;15039;50.830;4.730;2022-12-29T06:33:46;11.30;99.90
27619;DHT22;15039;50.830;4.730;2022-12-29T06:36:12;11.30;99.90
27619;DHT22;15039;50.830;4.730;2022-12-29T06:38:38;11.40;99.90
27619;DHT22;15039;50.830;4.730;2022-12-29T06:41:03;11.40;99.90
27619;DHT22;15039;50.830;4.730;2022-12-29T06:43:29;11.40;99.90
27619;DHT22;15039;50.830;4.730;2022-12-29T06:45:55;11.40;99.90
27619;DHT22;15039;50.830;4.730;2022-12-29T06:48:21;11.40;99.90
27619;DHT22;15039;50.830;4.730;2022-12-29T06:50:47;11.50;99.90
27619;DHT22;15039;50.830;4.730;2022-12-29T06:53:12;11.50;99.90
27619;DHT22;15039;50.830;4.730;2022-12-29T06:55:38;11.50;99.90
27619;DHT22;15039;50.830;4.730;2022-12-29T06:58:03;11.40;99.90
27619;DHT22;15039;50.830;4.730;2022-12-29T07:00:29;11.40;99.90
27619;DHT22;15039;50.830;4.730;2022-12-29T07:02:55;11.40;99.90
27619;DHT22;15039;50.830;4.730;2022-12-29T07:05:23;11.40;99.90
27619;DHT22;15039;50.830;4.730;2022-12-29T07:07:50;11.40;99.90
27619;DHT22;15039;50.830;4.730;2022-12-29T07:10:16;11.40;99.90
27619;DHT22;15039;50.830;4.730;2022-12-29T07:12:41;11.40;99.90
27619;DHT22;15039;50.830;4.730;2022-12-29T07:15:07;11.40;99.90
27619;DHT22;15039;50.830;4.730;2022-12-29T07:17:33;11.30;99.90
27619;DHT22;15039;50.830;4.730;2022-12-29T07:20:00;11.30;99.90
27619;DHT22;15039;50.830;4.730;2022-12-29T07:22:25;11.30;99.90
27619;DHT22;15039;50.830;4.730;2022-12-29T07:24:51;11.30;99.90
27619;DHT22;15039;50.830;4.730;2022-12-29T07:27:16;11.30;99.90
27619;DHT22;15039;50.830;4.730;2022-12-29T07:29:42;11.20;99.90
27619;DHT22;15039;50.830;4.730;2022-12-29T07:32:07;11.20;99.90
27619;DHT22;15039;50.830;4.730;2022-12-29T07:34:33;11.10;99.90
27619;DHT22;15039;50.830;4.730;2022-12-29T07:36:59;11.10;99.90
27619;DHT22;15039;50.830;4.730;2022-12-29T07:39:24;11.10;99.90
27619;DHT22;15039;50.830;4.730;2022-12-29T07:41:50;11.10;99.90
27619;DHT22;15039;50.830;4.730;2022-12-29T07:44:16;11.10;99.90
27619;DHT22;15039;50.830;4.730;2022-12-29T07:46:41;11.00;99.90
27619;DHT22;15039;50.830;4.730;2022-12-29T07:49:07;11.00;99.90
27619;DHT22;15039;50.830;4.730;2022-12-29T07:51:32;10.90;99.90
27619;DHT22;15039;50.830;4.730;2022-12-29T07:53:58;10.90;99.90
27619;DHT22;15039;50.830;4.730;2022-12-29T07:56:26;11.00;99.90
27619;DHT22;15039;50.830;4.730;2022-12-29T07:58:51;11.00;99.90
27619;DHT22;15039;50.830;4.730;2022-12-29T08:01:17;11.00;99.90
27619;DHT22;15039;50.830;4.730;2022-12-29T08:03:42;11.00;99.90
27619;DHT22;15039;50.830;4.730;2022-12-29T08:06:12;11.00;99.90
27619;DHT22;15039;50.830;4.730;2022-12-29T08:08:38;11.00;99.90
27619;DHT22;15039;50.830;4.730;2022-12-29T08:11:03;11.00;99.90
27619;DHT22;15039;50.830;4.730;2022-12-29T08:13:29;11.00;99.90
27619;DHT22;15039;50.830;4.730;2022-12-29T08:15:57;11.00;99.90
27619;DHT22;15039;50.830;4.730;2022-12-29T08:18:22;11.00;99.90
27619;DHT22;15039;50.830;4.730;2022-12-29T08:20:48;10.90;99.90
27619;DHT22;15039;50.830;4.730;2022-12-29T08:23:13;10.90;99.90
27619;DHT22;15039;50.830;4.730;2022-12-29T08:25:39;11.00;99.90
27619;DHT22;15039;50.830;4.730;2022-12-29T08:28:05;11.00;99.90
27619;DHT22;15039;50.830;4.730;2022-12-29T08:30:30;11.00;99.90
27619;DHT22;15039;50.830;4.730;2022-12-29T08:32:56;11.00;99.90
27619;DHT22;15039;50.830;4.730;2022-12-29T08:35:22;10.90;99.90
27619;DHT22;15039;50.830;4.730;2022-12-29T08:37:47;11.00;99.90
27619;DHT22;15039;50.830;4.730;2022-12-29T08:40:13;10.90;99.90
27619;DHT22;15039;50.830;4.730;2022-12-29T08:42:39;10.90;99.90
27619;DHT22;15039;50.830;4.730;2022-12-29T08:45:06;10.90;99.90
27619;DHT22;15039;50.830;4.730;2022-12-29T08:47:31;10.90;99.90
27619;DHT22;15039;50.830;4.730;2022-12-29T08:49:57;10.90;99.90
27619;DHT22;15039;50.830;4.730;2022-12-29T08:52:23;10.90;99.90
27619;DHT22;15039;50.830;4.730;2022-12-29T08:54:48;10.90;99.90
27619;DHT22;15039;50.830;4.730;2022-12-29T08:57:14;11.00;99.90
27619;DHT22;15039;50.830;4.730;2022-12-29T08:59:39;11.00;99.90
27619;DHT22;15039;50.830;4.730;2022-12-29T09:02:05;10.90;99.90
27619;DHT22;15039;50.830;4.730;2022-12-29T09:04:31;10.90;99.90
27619;DHT22;15039;50.830;4.730;2022-12-29T09:06:56;10.90;99.90
27619;DHT22;15039;50.830;4.730;2022-12-29T09:09:22;10.90;99.90
27619;DHT22;15039;50.830;4.730;2022-12-29T09:11:48;10.90;99.90
27619;DHT22;15039;50.830;4.730;2022-12-29T09:14:14;10.80;99.90
27619;DHT22;15039;50.830;4.730;2022-12-29T09:16:40;10.80;99.90
27619;DHT22;15039;50.830;4.730;2022-12-29T09:19:24;10.80;99.90
27619;DHT22;15039;50.830;4.730;2022-12-29T09:21:49;10.80;99.90
27619;DHT22;15039;50.830;4.730;2022-12-29T09:24:15;10.90;99.90
27619;DHT22;15039;50.830;4.730;2022-12-29T09:26:41;10.90;99.90
27619;DHT22;15039;50.830;4.730;2022-12-29T09:29:06;10.80;99.90
27619;DHT22;15039;50.830;4.730;2022-12-29T09:31:32;10.80;99.90
27619;DHT22;15039;50.830;4.730;2022-12-29T09:33:57;10.80;99.90
27619;DHT22;15039;50.830;4.730;2022-12-29T09:36:23;10.90;99.90
27619;DHT22;15039;50.830;4.730;2022-12-29T09:38:49;10.90;99.90
27619;DHT22;15039;50.830;4.730;2022-12-29T09:41:20;10.90;99.90
27619;DHT22;15039;50.830;4.730;2022-12-29T09:46:27;11.00;99.90
27619;DHT22;15039;50.830;4.730;2022-12-29T09:49:19;11.00;99.90
27619;DHT22;15039;50.830;4.730;2022-12-29T09:51:51;10.90;99.90
27619;DHT22;15039;50.830;4.730;2022-12-29T09:56:55;11.00;99.90
27619;DHT22;15039;50.830;4.730;2022-12-29T09:59:26;11.00;99.90
27619;DHT22;15039;50.830;4.730;2022-12-29T10:02:11;11.10;99.90
27619;DHT22;15039;50.830;4.730;2022-12-29T10:04:45;11.10;99.90
27619;DHT22;15039;50.830;4.730;2022-12-29T10:08:05;11.10;99.90
27619;DHT22;15039;50.830;4.730;2022-12-29T10:10:27;11.20;99.90
27619;DHT22;15039;50.830;4.730;2022-12-29T10:13:02;11.20;99.90
27619;DHT22;15039;50.830;4.730;2022-12-29T10:18:08;11.10;99.90
27619;DHT22;15039;50.830;4.730;2022-12-29T10:20:41;11.00;99.90
27619;DHT22;15039;50.830;4.730;2022-12-29T10:23:22;11.10;99.90
27619;DHT22;15039;50.830;4.730;2022-12-29T10:25:54;11.10;99.90
27619;DHT22;15039;50.830;4.730;2022-12-29T10:28:49;11.10;99.90
27619;DHT22;15039;50.830;4.730;2022-12-29T10:31:24;11.10;99.90
27619;DHT22;15039;50.830;4.730;2022-12-29T10:33:56;11.20;99.90
27619;DHT22;15039;50.830;4.730;2022-12-29T10:36:31;11.20;99.90
27619;DHT22;15039;50.830;4.730;2022-12-29T10:41:41;11.40;99.90
27619;DHT22;15039;50.830;4.730;2022-12-29T10:44:13;11.40;99.90
27619;DHT22;15039;50.830;4.730;2022-12-29T10:46:40;11.50;99.90
27619;DHT22;15039;50.830;4.730;2022-12-29T10:49:08;11.40;99.90
27619;DHT22;15039;50.830;4.730;2022-12-29T10:51:41;11.50;99.90
27619;DHT22;15039;50.830;4.730;2022-12-29T10:54:18;11.50;99.90
27619;DHT22;15039;50.830;4.730;2022-12-29T10:56:54;11.60;99.90
27619;DHT22;15039;50.830;4.730;2022-12-29T10:59:29;11.70;99.90
27619;DHT22;15039;50.830;4.730;2022-12-29T11:07:17;11.50;99.90
27619;DHT22;15039;50.830;4.730;2022-12-29T11:09:44;11.50;99.90
27619;DHT22;15039;50.830;4.730;2022-12-29T11:14:45;11.50;99.90
27619;DHT22;15039;50.830;4.730;2022-12-29T11:17:15;11.40;99.90
27619;DHT22;15039;50.830;4.730;2022-12-29T11:19:42;11.40;99.90
27619;DHT22;15039;50.830;4.730;2022-12-29T11:22:21;11.50;99.90
27619;DHT22;15039;50.830;4.730;2022-12-29T11:24:48;11.60;99.90
27619;DHT22;15039;50.830;4.730;2022-12-29T11:27:23;11.50;99.90
27619;DHT22;15039;50.830;4.730;2022-12-29T11:29:53;11.50;99.90
27619;DHT22;15039;50.830;4.730;2022-12-29T11:32:23;11.50;99.90
27619;DHT22;15039;50.830;4.730;2022-12-29T11:34:49;11.60;99.90
27619;DHT22;15039;50.830;4.730;2022-12-29T11:37:27;11.70;99.90
27619;DHT22;15039;50.830;4.730;2022-12-29T11:40:18;11.60;99.90
27619;DHT22;15039;50.830;4.730;2022-12-29T11:45:19;11.60;99.90
27619;DHT22;15039;50.830;4.730;2022-12-29T11:47:48;11.60;99.90
27619;DHT22;15039;50.830;4.730;2022-12-29T11:50:21;11.60;99.90
27619;DHT22;15039;50.830;4.730;2022-12-29T11:52:49;11.50;99.90
27619;DHT22;15039;50.830;4.730;2022-12-29T11:55:21;11.60;99.90
27619;DHT22;15039;50.830;4.730;2022-12-29T11:57:47;11.50;99.90
27619;DHT22;15039;50.830;4.730;2022-12-29T12:00:16;11.50;99.90
27619;DHT22;15039;50.830;4.730;2022-12-29T12:03:18;11.50;99.90
27619;DHT22;15039;50.830;4.730;2022-12-29T12:11:16;11.30;99.90
27619;DHT22;15039;50.830;4.730;2022-12-29T12:16:37;11.20;99.90
27619;DHT22;15039;50.830;4.730;2022-12-29T12:21:39;11.30;99.90
27619;DHT22;15039;50.830;4.730;2022-12-29T12:27:29;11.40;99.90
27619;DHT22;15039;50.830;4.730;2022-12-29T12:30:03;11.30;99.90
27619;DHT22;15039;50.830;4.730;2022-12-29T12:35:39;11.20;99.90
27619;DHT22;15039;50.830;4.730;2022-12-29T12:38:13;11.30;99.90
27619;DHT22;15039;50.830;4.730;2022-12-29T12:43:39;11.30;99.90
27619;DHT22;15039;50.830;4.730;2022-12-29T12:46:19;11.30;99.90
27619;DHT22;15039;50.830;4.730;2022-12-29T12:54:19;11.20;99.90
27619;DHT22;15039;50.830;4.730;2022-12-29T12:57:10;11.30;99.90
27619;DHT22;15039;50.830;4.730;2022-12-29T13:00:17;11.40;99.90
27619;DHT22;15039;50.830;4.730;2022-12-29T13:29:30;11.40;99.90
27619;DHT22;15039;50.830;4.730;2022-12-29T13:37:17;11.30;99.90
27619;DHT22;15039;50.830;4.730;2022-12-29T13:39:56;11.10;99.90
27619;DHT22;15039;50.830;4.730;2022-12-29T13:42:23;10.90;99.90
27619;DHT22;15039;50.830;4.730;2022-12-29T13:47:33;10.50;99.90
27619;DHT22;15039;50.830;4.730;2022-12-29T13:50:03;10.50;99.90
27619;DHT22;15039;50.830;4.730;2022-12-29T13:55:27;10.50;99.90
27619;DHT22;15039;50.830;4.730;2022-12-29T13:58:00;10.40;99.90
27619;DHT22;15039;50.830;4.730;2022-12-29T14:00:36;10.30;99.90
27619;DHT22;15039;50.830;4.730;2022-12-29T14:03:46;10.30;99.90
27619;DHT22;15039;50.830;4.730;2022-12-29T14:06:24;10.30;99.90
27619;DHT22;15039;50.830;4.730;2022-12-29T14:08:59;10.30;99.90
27619;DHT22;15039;50.830;4.730;2022-12-29T14:11:33;10.10;99.90
27619;DHT22;15039;50.830;4.730;2022-12-29T14:14:12;9.90;99.90
27619;DHT22;15039;50.830;4.730;2022-12-29T14:16:38;9.80;99.90
27619;DHT22;15039;50.830;4.730;2022-12-29T14:19:28;9.90;99.90
27619;DHT22;15039;50.830;4.730;2022-12-29T14:21:54;10.00;99.90
27619;DHT22;15039;50.830;4.730;2022-12-29T14:26:56;10.00;99.90
27619;DHT22;15039;50.830;4.730;2022-12-29T14:31:51;10.00;99.90
27619;DHT22;15039;50.830;4.730;2022-12-29T14:37:03;10.10;99.90
27619;DHT22;15039;50.830;4.730;2022-12-29T14:39:37;10.10;99.90
27619;DHT22;15039;50.830;4.730;2022-12-29T14:44:29;10.30;99.90
27619;DHT22;15039;50.830;4.730;2022-12-29T14:49:24;10.40;99.90
27619;DHT22;15039;50.830;4.730;2022-12-29T14:51:55;10.40;99.90
27619;DHT22;15039;50.830;4.730;2022-12-29T14:57:05;10.50;99.90
27619;DHT22;15039;50.830;4.730;2022-12-29T14:59:34;10.50;99.90
27619;DHT22;15039;50.830;4.730;2022-12-29T15:02:03;10.40;99.90
27619;DHT22;15039;50.830;4.730;2022-12-29T15:04:35;10.40;99.90
27619;DHT22;15039;50.830;4.730;2022-12-29T15:07:02;10.40;99.90
27619;DHT22;15039;50.830;4.730;2022-12-29T15:09:38;10.40;99.90
27619;DHT22;15039;50.830;4.730;2022-12-29T15:14:55;10.30;99.90
27619;DHT22;15039;50.830;4.730;2022-12-29T15:17:28;10.20;99.90
27619;DHT22;15039;50.830;4.730;2022-12-29T15:19:55;10.10;99.90
27619;DHT22;15039;50.830;4.730;2022-12-29T15:22:22;10.00;99.90
27619;DHT22;15039;50.830;4.730;2022-12-29T15:24:50;9.90;99.90
27619;DHT22;15039;50.830;4.730;2022-12-29T15:27:21;9.90;99.90
27619;DHT22;15039;50.830;4.730;2022-12-29T15:29:47;9.90;99.90
27619;DHT22;15039;50.830;4.730;2022-12-29T15:34:50;10.00;99.90
27619;DHT22;15039;50.830;4.730;2022-12-29T15:37:27;10.00;99.90
27619;DHT22;15039;50.830;4.730;2022-12-29T15:39:55;10.00;99.90
27619;DHT22;15039;50.830;4.730;2022-12-29T15:45:32;9.90;99.90
27619;DHT22;15039;50.830;4.730;2022-12-29T15:47:59;9.60;99.90
27619;DHT22;15039;50.830;4.730;2022-12-29T15:50:28;9.50;99.90
27619;DHT22;15039;50.830;4.730;2022-12-29T15:52:55;9.30;99.90
27619;DHT22;15039;50.830;4.730;2022-12-29T15:55:30;9.20;99.90
27619;DHT22;15039;50.830;4.730;2022-12-29T15:58:02;9.20;99.90
27619;DHT22;15039;50.830;4.730;2022-12-29T16:00:34;9.20;99.90
27619;DHT22;15039;50.830;4.730;2022-12-29T16:03:02;9.40;99.90
27619;DHT22;15039;50.830;4.730;2022-12-29T16:05:37;9.40;99.90
27619;DHT22;15039;50.830;4.730;2022-12-29T16:08:20;9.40;99.90
27619;DHT22;15039;50.830;4.730;2022-12-29T16:10:46;9.20;99.90
27619;DHT22;15039;50.830;4.730;2022-12-29T16:13:33;9.10;99.90
27619;DHT22;15039;50.830;4.730;2022-12-29T16:16:16;8.90;99.90
27619;DHT22;15039;50.830;4.730;2022-12-29T16:18:43;9.00;99.90
27619;DHT22;15039;50.830;4.730;2022-12-29T16:21:26;8.90;99.90
27619;DHT22;15039;50.830;4.730;2022-12-29T16:23:55;8.90;99.90
27619;DHT22;15039;50.830;4.730;2022-12-29T16:26:22;8.90;99.90
27619;DHT22;15039;50.830;4.730;2022-12-29T16:28:51;8.90;99.90
27619;DHT22;15039;50.830;4.730;2022-12-29T16:31:23;8.80;99.90
27619;DHT22;15039;50.830;4.730;2022-12-29T16:33:51;8.80;99.90
27619;DHT22;15039;50.830;4.730;2022-12-29T16:36:26;8.70;99.90
27619;DHT22;15039;50.830;4.730;2022-12-29T16:41:49;8.80;99.90
27619;DHT22;15039;50.830;4.730;2022-12-29T16:44:26;8.70;99.90
27619;DHT22;15039;50.830;4.730;2022-12-29T16:49:27;8.70;99.90
27619;DHT22;15039;50.830;4.730;2022-12-29T16:51:54;8.80;99.90
27619;DHT22;15039;50.830;4.730;2022-12-29T16:54:24;8.80;99.90
27619;DHT22;15039;50.830;4.730;2022-12-29T16:56:51;8.70;99.90
27619;DHT22;15039;50.830;4.730;2022-12-29T16:59:25;8.80;99.90
27619;DHT22;15039;50.830;4.730;2022-12-29T17:01:54;8.80;99.90
27619;DHT22;15039;50.830;4.730;2022-12-29T17:04:20;8.70;99.90
27619;DHT22;15039;50.830;4.730;2022-12-29T17:06:46;8.70;99.90
27619;DHT22;15039;50.830;4.730;2022-12-29T17:09:25;8.70;99.90
27619;DHT22;15039;50.830;4.730;2022-12-29T17:11:56;8.60;99.90
27619;DHT22;15039;50.830;4.730;2022-12-29T17:16:52;8.60;99.90
27619;DHT22;15039;50.830;4.730;2022-12-29T17:19:20;8.70;99.90
27619;DHT22;15039;50.830;4.730;2022-12-29T17:21:46;8.60;99.90
27619;DHT22;15039;50.830;4.730;2022-12-29T17:24:20;8.60;99.90
27619;DHT22;15039;50.830;4.730;2022-12-29T17:26:49;8.50;99.90
27619;DHT22;15039;50.830;4.730;2022-12-29T17:31:55;8.60;99.90
27619;DHT22;15039;50.830;4.730;2022-12-29T17:34:21;8.60;99.90
27619;DHT22;15039;50.830;4.730;2022-12-29T17:36:47;8.60;99.90
27619;DHT22;15039;50.830;4.730;2022-12-29T17:39:13;8.60;99.90
27619;DHT22;15039;50.830;4.730;2022-12-29T17:41:38;8.70;99.90
27619;DHT22;15039;50.830;4.730;2022-12-29T17:44:05;8.70;99.90
27619;DHT22;15039;50.830;4.730;2022-12-29T17:46:32;8.80;99.90
27619;DHT22;15039;50.830;4.730;2022-12-29T17:48:57;8.90;99.90
27619;DHT22;15039;50.830;4.730;2022-12-29T17:51:23;8.80;99.90
27619;DHT22;15039;50.830;4.730;2022-12-29T17:53:49;8.80;99.90
27619;DHT22;15039;50.830;4.730;2022-12-29T17:56:16;8.80;99.90
27619;DHT22;15039;50.830;4.730;2022-12-29T17:58:42;8.80;99.90
27619;DHT22;15039;50.830;4.730;2022-12-29T18:01:09;8.80;99.90
27619;DHT22;15039;50.830;4.730;2022-12-29T18:03:37;8.80;99.90
27619;DHT22;15039;50.830;4.730;2022-12-29T18:06:04;8.70;99.90
27619;DHT22;15039;50.830;4.730;2022-12-29T18:08:34;8.70;99.90
27619;DHT22;15039;50.830;4.730;2022-12-29T18:11:00;8.70;99.90
27619;DHT22;15039;50.830;4.730;2022-12-29T18:13:29;8.70;99.90